sensor_id;sensor_type;location;lat;lon;timestamp;pressure;altitude;pressure_sealevel;temperature;humidity
69239;BME280;56349;51.816;-0.026;2022-10-17T00:01:42;100326.14;;;21.49;38.74
69239;BME280;56349;51.816;-0.026;2022-10-17T00:04:08;100329.41;;;21.47;38.79
69239;BME280;56349;51.816;-0.026;2022-10-17T00:06:33;100332.59;;;21.23;38.83
69239;BME280;56349;51.816;-0.026;2022-10-17T00:08:58;100341.36;;;21.22;38.85
69239;BME280;56349;51.816;-0.026;2022-10-17T00:11:23;100343.92;;;21.44;38.85
69239;BME280;56349;51.816;-0.026;2022-10-17T00:13:50;100339.70;;;21.42;38.88
69239;BME280;56349;51.816;-0.026;2022-10-17T00:16:14;100341.55;;;21.17;38.92
69239;BME280;56349;51.816;-0.026;2022-10-17T00:18:39;100342.83;;;21.14;38.97
69239;BME280;56349;51.816;-0.026;2022-10-17T00:21:04;100342.81;;;21.60;39.02
69239;BME280;56349;51.816;-0.026;2022-10-17T00:23:29;100349.75;;;21.08;39.05
69239;BME280;56349;51.816;-0.026;2022-10-17T00:25:58;100348.02;;;21.28;39.09
69239;BME280;56349;51.816;-0.026;2022-10-17T00:28:22;100343.81;;;21.27;39.12
69239;BME280;56349;51.816;-0.026;2022-10-17T00:30:54;100341.95;;;21.27;39.12
69239;BME280;56349;51.816;-0.026;2022-10-17T00:33:12;100348.65;;;21.04;39.14
69239;BME280;56349;51.816;-0.026;2022-10-17T00:35:38;100353.64;;;21.24;39.18
69239;BME280;56349;51.816;-0.026;2022-10-17T00:38:04;100350.76;;;21.21;39.22
69239;BME280;56349;51.816;-0.026;2022-10-17T00:40:29;100345.10;;;21.51;39.18
69239;BME280;56349;51.816;-0.026;2022-10-17T00:42:56;100337.43;;;21.49;39.22
69239;BME280;56349;51.816;-0.026;2022-10-17T00:45:23;100333.72;;;21.21;39.23
69239;BME280;56349;51.816;-0.026;2022-10-17T00:47:50;100346.36;;;21.48;39.24
69239;BME280;56349;51.816;-0.026;2022-10-17T00:50:12;100351.96;;;21.21;39.24
69239;BME280;56349;51.816;-0.026;2022-10-17T00:52:37;100363.88;;;21.20;39.26
69239;BME280;56349;51.816;-0.026;2022-10-17T00:55:08;100370.41;;;21.46;39.28
69239;BME280;56349;51.816;-0.026;2022-10-17T00:57:30;100382.23;;;21.19;39.29
69239;BME280;56349;51.816;-0.026;2022-10-17T00:59:55;100390.29;;;21.17;39.31
69239;BME280;56349;51.816;-0.026;2022-10-17T01:02:20;100390.41;;;21.16;39.33
69239;BME280;56349;51.816;-0.026;2022-10-17T01:04:47;100392.03;;;21.40;39.37
69239;BME280;56349;51.816;-0.026;2022-10-17T01:07:10;100394.46;;;21.12;39.38
69239;BME280;56349;51.816;-0.026;2022-10-17T01:09:36;100391.93;;;21.12;39.38
69239;BME280;56349;51.816;-0.026;2022-10-17T01:12:06;100392.27;;;21.11;39.41
69239;BME280;56349;51.816;-0.026;2022-10-17T01:14:30;100386.63;;;21.08;39.44
69239;BME280;56349;51.816;-0.026;2022-10-17T01:16:54;100390.91;;;21.33;39.47
69239;BME280;56349;51.816;-0.026;2022-10-17T01:19:30;100396.08;;;21.05;39.47
69239;BME280;56349;51.816;-0.026;2022-10-17T01:21:47;100397.60;;;21.03;39.51
69239;BME280;56349;51.816;-0.026;2022-10-17T01:24:27;100394.08;;;21.04;39.51
69239;BME280;56349;51.816;-0.026;2022-10-17T01:26:48;100401.27;;;21.04;39.52
69239;BME280;56349;51.816;-0.026;2022-10-17T01:31:28;100416.94;;;21.04;39.52
69239;BME280;56349;51.816;-0.026;2022-10-17T01:33:59;100411.61;;;21.32;39.51
69239;BME280;56349;51.816;-0.026;2022-10-17T01:36:25;100411.17;;;21.30;39.52
69239;BME280;56349;51.816;-0.026;2022-10-17T01:38:46;100412.13;;;21.03;39.52
69239;BME280;56349;51.816;-0.026;2022-10-17T01:41:11;100410.51;;;21.29;39.54
69239;BME280;56349;51.816;-0.026;2022-10-17T01:43:36;100408.17;;;21.02;39.55
69239;BME280;56349;51.816;-0.026;2022-10-17T01:45:59;100408.18;;;20.80;39.54
69239;BME280;56349;51.816;-0.026;2022-10-17T01:48:25;100407.85;;;21.03;39.54
69239;BME280;56349;51.816;-0.026;2022-10-17T01:50:50;100411.86;;;21.03;39.53
69239;BME280;56349;51.816;-0.026;2022-10-17T01:53:17;100415.62;;;21.02;39.54
69239;BME280;56349;51.816;-0.026;2022-10-17T01:55:42;100421.62;;;21.02;39.55
69239;BME280;56349;51.816;-0.026;2022-10-17T01:58:08;100423.87;;;21.29;39.55
69239;BME280;56349;51.816;-0.026;2022-10-17T02:00:31;100425.32;;;21.28;39.55
69239;BME280;56349;51.816;-0.026;2022-10-17T02:02:59;100429.07;;;21.00;39.57
69239;BME280;56349;51.816;-0.026;2022-10-17T02:05:25;100426.68;;;20.99;39.58
69239;BME280;56349;51.816;-0.026;2022-10-17T02:07:46;100429.01;;;20.77;39.58
69239;BME280;56349;51.816;-0.026;2022-10-17T02:10:18;100429.30;;;21.25;39.59
69239;BME280;56349;51.816;-0.026;2022-10-17T02:12:44;100435.89;;;21.25;39.60
69239;BME280;56349;51.816;-0.026;2022-10-17T02:15:14;100436.63;;;20.99;39.61
69239;BME280;56349;51.816;-0.026;2022-10-17T02:17:36;100440.70;;;20.99;39.60
69239;BME280;56349;51.816;-0.026;2022-10-17T02:19:59;100446.61;;;21.25;39.60
69239;BME280;56349;51.816;-0.026;2022-10-17T02:22:26;100446.76;;;20.97;39.62
69239;BME280;56349;51.816;-0.026;2022-10-17T02:24:50;100442.70;;;21.22;39.64
69239;BME280;56349;51.816;-0.026;2022-10-17T02:27:13;100448.54;;;20.95;39.65
69239;BME280;56349;51.816;-0.026;2022-10-17T02:29:43;100442.38;;;21.20;39.67
69239;BME280;56349;51.816;-0.026;2022-10-17T02:32:04;100456.44;;;20.91;39.70
69239;BME280;56349;51.816;-0.026;2022-10-17T02:34:31;100468.07;;;20.90;39.70
69239;BME280;56349;51.816;-0.026;2022-10-17T02:36:56;100464.28;;;20.90;39.71
69239;BME280;56349;51.816;-0.026;2022-10-17T02:39:19;100464.96;;;20.89;39.71
69239;BME280;56349;51.816;-0.026;2022-10-17T02:41:45;100470.15;;;21.16;39.72
69239;BME280;56349;51.816;-0.026;2022-10-17T02:44:10;100482.91;;;21.15;39.73
69239;BME280;56349;51.816;-0.026;2022-10-17T02:46:36;100488.81;;;21.15;39.73
69239;BME280;56349;51.816;-0.026;2022-10-17T02:49:04;100489.96;;;21.14;39.75
69239;BME280;56349;51.816;-0.026;2022-10-17T02:51:30;100485.66;;;20.88;39.75
69239;BME280;56349;51.816;-0.026;2022-10-17T02:53:56;100489.73;;;21.15;39.75
69239;BME280;56349;51.816;-0.026;2022-10-17T02:56:20;100498.80;;;20.87;39.76
69239;BME280;56349;51.816;-0.026;2022-10-17T02:58:45;100497.77;;;20.87;39.77
69239;BME280;56349;51.816;-0.026;2022-10-17T03:01:08;100497.57;;;21.13;39.77
69239;BME280;56349;51.816;-0.026;2022-10-17T03:03:33;100487.65;;;21.12;39.77
69239;BME280;56349;51.816;-0.026;2022-10-17T03:05:59;100482.44;;;21.11;39.79
69239;BME280;56349;51.816;-0.026;2022-10-17T03:08:24;100479.01;;;21.11;39.79
69239;BME280;56349;51.816;-0.026;2022-10-17T03:10:49;100468.41;;;21.11;39.78
69239;BME280;56349;51.816;-0.026;2022-10-17T03:13:16;100460.40;;;21.11;39.78
69239;BME280;56349;51.816;-0.026;2022-10-17T03:15:41;100454.44;;;21.12;39.78
69239;BME280;56349;51.816;-0.026;2022-10-17T03:18:06;100450.97;;;20.85;39.78
69239;BME280;56349;51.816;-0.026;2022-10-17T03:20:32;100448.30;;;21.10;39.78
69239;BME280;56349;51.816;-0.026;2022-10-17T03:22:57;100454.38;;;21.10;39.81
69239;BME280;56349;51.816;-0.026;2022-10-17T03:25:22;100456.06;;;20.84;39.80
69239;BME280;56349;51.816;-0.026;2022-10-17T03:27:48;100456.04;;;21.11;39.79
69239;BME280;56349;51.816;-0.026;2022-10-17T03:30:14;100458.44;;;20.84;39.80
69239;BME280;56349;51.816;-0.026;2022-10-17T03:32:40;100456.87;;;21.09;39.86
69239;BME280;56349;51.816;-0.026;2022-10-17T03:35:07;100462.94;;;21.11;39.91
69239;BME280;56349;51.816;-0.026;2022-10-17T03:37:32;100466.52;;;20.89;39.93
69239;BME280;56349;51.816;-0.026;2022-10-17T03:39:57;100457.01;;;20.72;39.94
69239;BME280;56349;51.816;-0.026;2022-10-17T03:42:22;100458.33;;;21.03;39.93
69239;BME280;56349;51.816;-0.026;2022-10-17T03:44:47;100471.88;;;20.92;39.87
69239;BME280;56349;51.816;-0.026;2022-10-17T03:47:12;100470.86;;;21.28;39.76
69239;BME280;56349;51.816;-0.026;2022-10-17T03:49:37;100468.57;;;21.43;39.56
69239;BME280;56349;51.816;-0.026;2022-10-17T03:52:02;100462.65;;;21.36;39.36
69239;BME280;56349;51.816;-0.026;2022-10-17T03:54:28;100467.71;;;21.49;39.15
69239;BME280;56349;51.816;-0.026;2022-10-17T03:56:53;100474.14;;;21.60;38.98
69239;BME280;56349;51.816;-0.026;2022-10-17T03:59:18;100478.27;;;21.45;38.82
69239;BME280;56349;51.816;-0.026;2022-10-17T04:01:44;100479.91;;;21.72;38.70
69239;BME280;56349;51.816;-0.026;2022-10-17T04:04:09;100486.49;;;21.74;38.61
69239;BME280;56349;51.816;-0.026;2022-10-17T04:06:34;100487.93;;;21.51;38.55
69239;BME280;56349;51.816;-0.026;2022-10-17T04:09:00;100489.33;;;21.73;38.49
69239;BME280;56349;51.816;-0.026;2022-10-17T04:11:26;100486.42;;;21.71;38.45
69239;BME280;56349;51.816;-0.026;2022-10-17T04:13:52;100486.04;;;21.68;38.44
69239;BME280;56349;51.816;-0.026;2022-10-17T04:16:17;100487.13;;;21.64;38.45
69239;BME280;56349;51.816;-0.026;2022-10-17T04:18:42;100488.77;;;21.57;38.49
69239;BME280;56349;51.816;-0.026;2022-10-17T04:21:08;100489.77;;;21.51;38.52
69239;BME280;56349;51.816;-0.026;2022-10-17T04:23:34;100492.93;;;21.47;38.56
69239;BME280;56349;51.816;-0.026;2022-10-17T04:26:05;100485.40;;;21.42;38.61
69239;BME280;56349;51.816;-0.026;2022-10-17T04:28:26;100481.98;;;21.36;38.64
69239;BME280;56349;51.816;-0.026;2022-10-17T04:30:55;100486.58;;;21.31;38.70
69239;BME280;56349;51.816;-0.026;2022-10-17T04:33:16;100488.91;;;21.27;38.73
69239;BME280;56349;51.816;-0.026;2022-10-17T04:35:42;100496.11;;;21.45;38.77
69239;BME280;56349;51.816;-0.026;2022-10-17T04:38:07;100500.70;;;21.41;38.82
69239;BME280;56349;51.816;-0.026;2022-10-17T04:40:33;100501.62;;;21.37;38.86
69239;BME280;56349;51.816;-0.026;2022-10-17T04:42:58;100500.83;;;21.12;38.89
69239;BME280;56349;51.816;-0.026;2022-10-17T04:45:24;100512.61;;;21.30;38.95
69239;BME280;56349;51.816;-0.026;2022-10-17T04:47:49;100512.02;;;21.27;38.99
69239;BME280;56349;51.816;-0.026;2022-10-17T04:50:16;100519.05;;;21.26;39.01
69239;BME280;56349;51.816;-0.026;2022-10-17T04:52:41;100526.02;;;21.02;39.02
69239;BME280;56349;51.816;-0.026;2022-10-17T04:55:07;100523.50;;;21.49;39.04
69239;BME280;56349;51.816;-0.026;2022-10-17T04:57:33;100524.93;;;21.20;39.07
69239;BME280;56349;51.816;-0.026;2022-10-17T04:59:58;100528.55;;;20.97;39.08
69239;BME280;56349;51.816;-0.026;2022-10-17T05:02:23;100524.94;;;21.16;39.11
69239;BME280;56349;51.816;-0.026;2022-10-17T05:04:49;100538.20;;;21.15;39.13
69239;BME280;56349;51.816;-0.026;2022-10-17T05:07:14;100542.80;;;21.13;39.16
69239;BME280;56349;51.816;-0.026;2022-10-17T05:09:41;100538.86;;;21.11;39.18
69239;BME280;56349;51.816;-0.026;2022-10-17T05:12:06;100540.30;;;21.09;39.21
69239;BME280;56349;51.816;-0.026;2022-10-17T05:14:32;100550.82;;;20.88;39.20
69239;BME280;56349;51.816;-0.026;2022-10-17T05:16:58;100557.39;;;21.06;39.24
69239;BME280;56349;51.816;-0.026;2022-10-17T05:19:24;100564.80;;;21.02;39.30
69239;BME280;56349;51.816;-0.026;2022-10-17T05:21:51;100567.83;;;21.27;39.32
69239;BME280;56349;51.816;-0.026;2022-10-17T05:24:16;100570.90;;;21.26;39.34
69239;BME280;56349;51.816;-0.026;2022-10-17T05:26:41;100577.70;;;21.26;39.35
69239;BME280;56349;51.816;-0.026;2022-10-17T05:29:07;100589.40;;;21.22;39.38
69239;BME280;56349;51.816;-0.026;2022-10-17T05:31:32;100593.18;;;21.20;39.43
69239;BME280;56349;51.816;-0.026;2022-10-17T05:33:59;100586.73;;;21.18;39.45
69239;BME280;56349;51.816;-0.026;2022-10-17T05:36:23;100579.51;;;20.89;39.48
69239;BME280;56349;51.816;-0.026;2022-10-17T05:38:49;100588.23;;;21.17;39.48
69239;BME280;56349;51.816;-0.026;2022-10-17T05:41:14;100585.04;;;20.92;39.46
69239;BME280;56349;51.816;-0.026;2022-10-17T05:43:40;100592.16;;;20.92;39.47
69239;BME280;56349;51.816;-0.026;2022-10-17T05:46:06;100589.76;;;20.91;39.48
69239;BME280;56349;51.816;-0.026;2022-10-17T05:48:32;100588.50;;;21.15;39.52
69239;BME280;56349;51.816;-0.026;2022-10-17T05:50:58;100589.18;;;21.16;39.53
69239;BME280;56349;51.816;-0.026;2022-10-17T05:53:23;100591.25;;;20.90;39.52
69239;BME280;56349;51.816;-0.026;2022-10-17T05:55:55;100592.22;;;20.90;39.52
69239;BME280;56349;51.816;-0.026;2022-10-17T05:58:14;100604.42;;;21.17;39.52
69239;BME280;56349;51.816;-0.026;2022-10-17T06:00:40;100600.83;;;21.18;39.51
69239;BME280;56349;51.816;-0.026;2022-10-17T06:03:05;100607.44;;;20.91;39.51
69239;BME280;56349;51.816;-0.026;2022-10-17T06:05:31;100622.51;;;20.90;39.54
69239;BME280;56349;51.816;-0.026;2022-10-17T06:07:56;100631.39;;;21.16;39.56
69239;BME280;56349;51.816;-0.026;2022-10-17T06:10:22;100631.77;;;21.14;39.60
69239;BME280;56349;51.816;-0.026;2022-10-17T06:12:48;100635.33;;;20.86;39.61
69239;BME280;56349;51.816;-0.026;2022-10-17T06:15:14;100640.95;;;20.87;39.62
69239;BME280;56349;51.816;-0.026;2022-10-17T06:17:39;100646.64;;;20.64;39.63
69239;BME280;56349;51.816;-0.026;2022-10-17T06:20:07;100661.57;;;20.85;39.65
69239;BME280;56349;51.816;-0.026;2022-10-17T06:22:30;100678.72;;;20.84;39.66
69239;BME280;56349;51.816;-0.026;2022-10-17T06:24:56;100681.18;;;21.09;39.70
69239;BME280;56349;51.816;-0.026;2022-10-17T06:27:23;100677.76;;;21.08;39.70
69239;BME280;56349;51.816;-0.026;2022-10-17T06:29:48;100671.42;;;21.08;39.73
69239;BME280;56349;51.816;-0.026;2022-10-17T06:32:13;100686.12;;;21.10;39.70
69239;BME280;56349;51.816;-0.026;2022-10-17T06:34:38;100694.31;;;20.84;39.70
69239;BME280;56349;51.816;-0.026;2022-10-17T06:37:03;100692.11;;;21.10;39.71
69239;BME280;56349;51.816;-0.026;2022-10-17T06:39:28;100694.85;;;21.09;39.73
69239;BME280;56349;51.816;-0.026;2022-10-17T06:41:54;100703.92;;;21.10;39.72
69239;BME280;56349;51.816;-0.026;2022-10-17T06:44:21;100707.19;;;21.31;39.74
69239;BME280;56349;51.816;-0.026;2022-10-17T06:46:46;100712.58;;;21.10;39.73
69239;BME280;56349;51.816;-0.026;2022-10-17T06:49:11;100715.47;;;20.83;39.78
69239;BME280;56349;51.816;-0.026;2022-10-17T06:51:37;100725.37;;;20.82;39.80
69239;BME280;56349;51.816;-0.026;2022-10-17T06:54:03;100722.98;;;21.09;39.87
69239;BME280;56349;51.816;-0.026;2022-10-17T06:56:28;100723.11;;;20.83;40.05
69239;BME280;56349;51.816;-0.026;2022-10-17T06:58:54;100730.36;;;21.11;40.29
69239;BME280;56349;51.816;-0.026;2022-10-17T07:01:20;100737.70;;;21.16;40.66
69239;BME280;56349;51.816;-0.026;2022-10-17T07:03:47;100739.76;;;20.96;40.86
69239;BME280;56349;51.816;-0.026;2022-10-17T07:06:12;100746.41;;;21.10;40.99
69239;BME280;56349;51.816;-0.026;2022-10-17T07:08:42;100753.91;;;21.27;40.88
69239;BME280;56349;51.816;-0.026;2022-10-17T07:11:09;100766.98;;;21.22;40.75
69239;BME280;56349;51.816;-0.026;2022-10-17T07:13:30;100772.24;;;21.43;40.65
69239;BME280;56349;51.816;-0.026;2022-10-17T07:15:57;100775.67;;;21.67;40.53
69239;BME280;56349;51.816;-0.026;2022-10-17T07:18:22;100781.04;;;21.68;40.34
69239;BME280;56349;51.816;-0.026;2022-10-17T07:20:52;100791.15;;;21.66;40.15
69239;BME280;56349;51.816;-0.026;2022-10-17T07:23:13;100803.56;;;21.92;39.91
69239;BME280;56349;51.816;-0.026;2022-10-17T07:25:40;100801.29;;;22.14;39.68
69239;BME280;56349;51.816;-0.026;2022-10-17T07:28:06;100805.15;;;22.36;39.43
69239;BME280;56349;51.816;-0.026;2022-10-17T07:30:32;100809.46;;;22.55;39.19
69239;BME280;56349;51.816;-0.026;2022-10-17T07:32:57;100810.60;;;22.74;38.97
69239;BME280;56349;51.816;-0.026;2022-10-17T07:35:22;100818.93;;;22.71;38.73
69239;BME280;56349;51.816;-0.026;2022-10-17T07:37:48;100821.86;;;22.62;38.48
69239;BME280;56349;51.816;-0.026;2022-10-17T07:40:14;100835.14;;;23.06;38.27
69239;BME280;56349;51.816;-0.026;2022-10-17T07:42:40;100836.08;;;22.97;38.08
69239;BME280;56349;51.816;-0.026;2022-10-17T07:45:07;100843.59;;;22.90;37.86
69239;BME280;56349;51.816;-0.026;2022-10-17T07:47:32;100853.72;;;23.28;37.63
69239;BME280;56349;51.816;-0.026;2022-10-17T07:49:58;100862.60;;;23.21;37.41
69239;BME280;56349;51.816;-0.026;2022-10-17T07:52:25;100872.90;;;23.36;37.17
69239;BME280;56349;51.816;-0.026;2022-10-17T07:54:50;100887.57;;;23.28;36.95
69239;BME280;56349;51.816;-0.026;2022-10-17T07:57:15;100892.33;;;23.59;36.74
69239;BME280;56349;51.816;-0.026;2022-10-17T07:59:41;100894.02;;;23.68;36.52
69239;BME280;56349;51.816;-0.026;2022-10-17T08:02:08;100897.99;;;23.74;36.42
69239;BME280;56349;51.816;-0.026;2022-10-17T08:04:33;100896.53;;;23.57;36.31
69239;BME280;56349;51.816;-0.026;2022-10-17T08:06:59;100902.39;;;23.86;36.23
69239;BME280;56349;51.816;-0.026;2022-10-17T08:09:24;100907.50;;;23.71;36.13
69239;BME280;56349;51.816;-0.026;2022-10-17T08:11:50;100911.13;;;23.97;36.07
69239;BME280;56349;51.816;-0.026;2022-10-17T08:14:15;100914.77;;;23.79;35.97
69239;BME280;56349;51.816;-0.026;2022-10-17T08:16:41;100910.77;;;23.88;35.89
69239;BME280;56349;51.816;-0.026;2022-10-17T08:19:07;100917.36;;;23.70;35.76
69239;BME280;56349;51.816;-0.026;2022-10-17T08:21:33;100927.36;;;24.04;35.69
69239;BME280;56349;51.816;-0.026;2022-10-17T08:23:58;100927.86;;;24.11;35.64
69239;BME280;56349;51.816;-0.026;2022-10-17T08:26:24;100926.58;;;24.21;35.60
69239;BME280;56349;51.816;-0.026;2022-10-17T08:28:50;100931.15;;;24.32;35.52
69239;BME280;56349;51.816;-0.026;2022-10-17T08:31:18;100932.88;;;24.11;35.49
69239;BME280;56349;51.816;-0.026;2022-10-17T08:33:42;100941.11;;;24.46;35.41
69239;BME280;56349;51.816;-0.026;2022-10-17T08:36:11;100948.15;;;24.52;35.35
69239;BME280;56349;51.816;-0.026;2022-10-17T08:38:35;100947.63;;;24.28;35.40
69239;BME280;56349;51.816;-0.026;2022-10-17T08:41:01;100952.09;;;24.33;35.36
69239;BME280;56349;51.816;-0.026;2022-10-17T08:43:32;100957.90;;;24.19;35.29
69239;BME280;56349;51.816;-0.026;2022-10-17T08:45:53;100959.39;;;24.44;35.29
69239;BME280;56349;51.816;-0.026;2022-10-17T08:48:17;100959.85;;;24.74;35.19
69239;BME280;56349;51.816;-0.026;2022-10-17T08:50:44;100964.92;;;24.30;35.16
69239;BME280;56349;51.816;-0.026;2022-10-17T08:53:13;100971.31;;;24.35;35.13
69239;BME280;56349;51.816;-0.026;2022-10-17T08:55:35;100975.45;;;24.59;35.18
69239;BME280;56349;51.816;-0.026;2022-10-17T08:57:58;100979.63;;;24.45;35.15
69239;BME280;56349;51.816;-0.026;2022-10-17T09:00:24;100979.73;;;24.38;35.07
69239;BME280;56349;51.816;-0.026;2022-10-17T09:02:59;100983.86;;;24.35;34.97
69239;BME280;56349;51.816;-0.026;2022-10-17T09:05:24;100988.57;;;24.55;34.92
69239;BME280;56349;51.816;-0.026;2022-10-17T09:07:44;100995.40;;;24.52;34.79
69239;BME280;56349;51.816;-0.026;2022-10-17T09:10:11;101005.82;;;24.42;34.73
69239;BME280;56349;51.816;-0.026;2022-10-17T09:12:37;101010.70;;;24.57;34.73
69239;BME280;56349;51.816;-0.026;2022-10-17T09:17:30;101016.87;;;24.24;34.85
69239;BME280;56349;51.816;-0.026;2022-10-17T09:19:56;101027.37;;;24.06;34.99
69239;BME280;56349;51.816;-0.026;2022-10-17T09:22:16;101025.90;;;23.88;35.14
69239;BME280;56349;51.816;-0.026;2022-10-17T09:24:41;101027.89;;;24.15;35.29
69239;BME280;56349;51.816;-0.026;2022-10-17T09:27:05;101023.34;;;23.77;35.43
69239;BME280;56349;51.816;-0.026;2022-10-17T09:29:30;101033.22;;;23.85;35.58
69239;BME280;56349;51.816;-0.026;2022-10-17T09:31:59;101042.40;;;23.49;35.70
69239;BME280;56349;51.816;-0.026;2022-10-17T09:34:21;101047.12;;;23.57;35.86
69239;BME280;56349;51.816;-0.026;2022-10-17T09:36:46;101045.94;;;23.44;36.05
69239;BME280;56349;51.816;-0.026;2022-10-17T09:39:15;101049.46;;;23.60;36.23
69239;BME280;56349;51.816;-0.026;2022-10-17T09:41:40;101048.13;;;23.16;36.51
69239;BME280;56349;51.816;-0.026;2022-10-17T09:44:15;101048.83;;;23.35;36.63
69239;BME280;56349;51.816;-0.026;2022-10-17T09:46:33;101047.32;;;22.97;36.69
69239;BME280;56349;51.816;-0.026;2022-10-17T09:48:57;101047.10;;;23.14;36.78
69239;BME280;56349;51.816;-0.026;2022-10-17T09:51:21;101043.00;;;23.04;36.93
69239;BME280;56349;51.816;-0.026;2022-10-17T09:53:48;101052.11;;;23.00;37.07
69239;BME280;56349;51.816;-0.026;2022-10-17T09:56:13;101067.48;;;23.01;37.22
69239;BME280;56349;51.816;-0.026;2022-10-17T09:58:41;101073.58;;;23.07;37.33
69239;BME280;56349;51.816;-0.026;2022-10-17T10:03:27;101081.10;;;23.31;37.28
69239;BME280;56349;51.816;-0.026;2022-10-17T10:05:59;101083.78;;;23.21;37.15
69239;BME280;56349;51.816;-0.026;2022-10-17T10:08:19;101082.97;;;23.16;36.97
69239;BME280;56349;51.816;-0.026;2022-10-17T10:10:45;101088.54;;;23.51;36.84
69239;BME280;56349;51.816;-0.026;2022-10-17T10:13:17;101096.20;;;23.65;36.69
69239;BME280;56349;51.816;-0.026;2022-10-17T10:15:37;101108.19;;;23.56;36.53
69239;BME280;56349;51.816;-0.026;2022-10-17T10:18:01;101113.16;;;23.94;36.34
69239;BME280;56349;51.816;-0.026;2022-10-17T10:20:32;101119.92;;;23.83;36.19
69239;BME280;56349;51.816;-0.026;2022-10-17T10:25:19;101128.09;;;23.86;35.89
69239;BME280;56349;51.816;-0.026;2022-10-17T10:27:46;101127.86;;;23.99;35.72
69239;BME280;56349;51.816;-0.026;2022-10-17T10:30:16;101137.94;;;24.13;35.58
69239;BME280;56349;51.816;-0.026;2022-10-17T10:32:36;101142.63;;;24.22;35.46
69239;BME280;56349;51.816;-0.026;2022-10-17T10:35:05;101152.30;;;24.28;35.42
69239;BME280;56349;51.816;-0.026;2022-10-17T10:37:29;101161.08;;;24.33;35.34
69239;BME280;56349;51.816;-0.026;2022-10-17T10:39:54;101158.99;;;24.39;35.23
69239;BME280;56349;51.816;-0.026;2022-10-17T10:42:22;101154.96;;;24.18;35.13
69239;BME280;56349;51.816;-0.026;2022-10-17T10:44:44;101154.59;;;24.53;35.01
69239;BME280;56349;51.816;-0.026;2022-10-17T10:47:15;101159.72;;;24.36;34.93
69239;BME280;56349;51.816;-0.026;2022-10-17T10:49:40;101167.04;;;24.70;34.85
69239;BME280;56349;51.816;-0.026;2022-10-17T10:52:03;101171.54;;;24.76;34.81
69239;BME280;56349;51.816;-0.026;2022-10-17T10:54:31;101181.80;;;24.50;34.76
69239;BME280;56349;51.816;-0.026;2022-10-17T10:56:53;101190.57;;;24.32;34.70
69239;BME280;56349;51.816;-0.026;2022-10-17T10:59:21;101192.32;;;24.59;34.62
69239;BME280;56349;51.816;-0.026;2022-10-17T11:01:49;101193.79;;;24.59;34.62
69239;BME280;56349;51.816;-0.026;2022-10-17T11:04:20;101196.09;;;24.62;34.58
69239;BME280;56349;51.816;-0.026;2022-10-17T11:06:36;101192.93;;;24.69;34.56
69239;BME280;56349;51.816;-0.026;2022-10-17T11:09:11;101197.08;;;24.55;34.46
69239;BME280;56349;51.816;-0.026;2022-10-17T11:11:28;101196.07;;;25.08;34.41
69239;BME280;56349;51.816;-0.026;2022-10-17T11:13:55;101199.56;;;24.86;34.33
69239;BME280;56349;51.816;-0.026;2022-10-17T11:16:23;101204.23;;;24.88;34.28
69239;BME280;56349;51.816;-0.026;2022-10-17T11:18:46;101205.93;;;24.70;34.22
69239;BME280;56349;51.816;-0.026;2022-10-17T11:21:14;101212.91;;;24.93;34.20
69239;BME280;56349;51.816;-0.026;2022-10-17T11:23:39;101217.51;;;25.22;34.13
69239;BME280;56349;51.816;-0.026;2022-10-17T11:26:02;101216.70;;;24.72;34.14
69239;BME280;56349;51.816;-0.026;2022-10-17T11:28:25;101225.20;;;24.77;34.11
69239;BME280;56349;51.816;-0.026;2022-10-17T11:30:54;101235.05;;;24.57;34.06
69239;BME280;56349;51.816;-0.026;2022-10-17T11:33:23;101236.56;;;24.82;34.01
69239;BME280;56349;51.816;-0.026;2022-10-17T11:35:43;101244.31;;;25.04;33.99
69239;BME280;56349;51.816;-0.026;2022-10-17T11:38:13;101249.51;;;25.08;34.03
69239;BME280;56349;51.816;-0.026;2022-10-17T11:40:34;101254.12;;;24.86;33.99
69239;BME280;56349;51.816;-0.026;2022-10-17T11:42:59;101260.58;;;24.87;33.99
69239;BME280;56349;51.816;-0.026;2022-10-17T11:45:25;101256.18;;;24.86;34.02
69239;BME280;56349;51.816;-0.026;2022-10-17T11:47:52;101253.67;;;24.85;34.03
69239;BME280;56349;51.816;-0.026;2022-10-17T11:50:21;101252.53;;;24.87;34.06
69239;BME280;56349;51.816;-0.026;2022-10-17T11:52:42;101255.28;;;24.87;34.04
69239;BME280;56349;51.816;-0.026;2022-10-17T11:55:11;101259.21;;;24.86;34.04
69239;BME280;56349;51.816;-0.026;2022-10-17T11:57:44;101260.92;;;24.86;34.04
69239;BME280;56349;51.816;-0.026;2022-10-17T12:00:03;101265.50;;;25.08;34.03
69239;BME280;56349;51.816;-0.026;2022-10-17T12:02:29;101269.56;;;24.87;34.02
69239;BME280;56349;51.816;-0.026;2022-10-17T12:04:54;101268.75;;;24.65;34.00
69239;BME280;56349;51.816;-0.026;2022-10-17T12:07:18;101272.79;;;24.89;33.97
69239;BME280;56349;51.816;-0.026;2022-10-17T12:09:42;101274.16;;;25.13;33.97
69239;BME280;56349;51.816;-0.026;2022-10-17T12:12:04;101273.68;;;24.94;33.96
69239;BME280;56349;51.816;-0.026;2022-10-17T12:14:35;101281.72;;;24.96;33.93
69239;BME280;56349;51.816;-0.026;2022-10-17T12:16:55;101277.13;;;24.98;33.88
69239;BME280;56349;51.816;-0.026;2022-10-17T12:19:26;101280.73;;;24.75;33.87
69239;BME280;56349;51.816;-0.026;2022-10-17T12:24:19;101281.16;;;24.98;33.83
69239;BME280;56349;51.816;-0.026;2022-10-17T12:26:37;101280.24;;;24.98;33.85
69239;BME280;56349;51.816;-0.026;2022-10-17T12:29:02;101275.36;;;25.00;33.81
69239;BME280;56349;51.816;-0.026;2022-10-17T12:31:28;101278.40;;;25.02;33.78
69239;BME280;56349;51.816;-0.026;2022-10-17T12:33:55;101277.70;;;25.04;33.72
69239;BME280;56349;51.816;-0.026;2022-10-17T12:38:47;101276.40;;;25.02;33.71
69239;BME280;56349;51.816;-0.026;2022-10-17T12:41:11;101276.84;;;25.02;33.72
69239;BME280;56349;51.816;-0.026;2022-10-17T12:43:43;101280.33;;;25.25;33.70
69239;BME280;56349;51.816;-0.026;2022-10-17T12:46:02;101280.86;;;25.08;33.64